createdAt,value
2019-05-11T00:00:05.344Z,75.43
2019-05-11T00:05:07.805Z,75.54
2019-05-11T00:10:09.999Z,75.43
2019-05-11T00:15:12.260Z,75.70
2019-05-11T00:20:14.354Z,76.89
2019-05-11T00:25:16.388Z,77.35
2019-05-11T00:30:18.792Z,77.20
2019-05-11T00:35:20.839Z,79.57
2019-05-11T00:40:22.905Z,80.51
2019-05-11T00:45:25.048Z,81.20
2019-05-11T00:50:38.878Z,80.80
2019-05-11T00:55:31.350Z,82.47
2019-05-11T01:00:33.566Z,85.62
2019-05-11T01:05:35.638Z,84.77
2019-05-11T01:10:42.274Z,86.37
2019-05-11T01:15:41.638Z,86.62
2019-05-11T01:20:43.959Z,85.72
2019-05-11T01:25:46.468Z,85.84
2019-05-11T01:30:48.599Z,84.95
2019-05-11T01:35:51.250Z,85.08
2019-05-11T01:40:58.704Z,85.04
2019-05-11T01:45:57.439Z,86.25
2019-05-11T01:50:59.522Z,86.27
2019-05-11T01:56:01.821Z,86.28
2019-05-11T02:01:03.967Z,85.50
2019-05-11T02:06:06.085Z,86.67
2019-05-11T02:11:15.725Z,86.93
2019-05-11T02:16:12.063Z,86.58
2019-05-11T02:21:14.170Z,86.72
2019-05-11T02:26:16.328Z,87.00
2019-05-11T02:31:18.506Z,87.60
2019-05-11T02:36:20.632Z,89.31
2019-05-11T02:41:35.395Z,89.83
2019-05-11T02:46:26.771Z,88.71
2019-05-11T02:51:28.940Z,90.13
2019-05-11T02:56:31.009Z,89.74
2019-05-11T03:01:33.114Z,92.78
2019-05-11T03:06:35.206Z,93.03
2019-05-11T03:11:54.287Z,91.27
2019-05-11T03:16:41.410Z,91.61
2019-05-11T03:21:43.462Z,91.29
2019-05-11T03:26:45.543Z,91.08
2019-05-11T03:31:47.600Z,90.99
2019-05-11T03:36:49.692Z,90.67
2019-05-11T03:41:51.806Z,90.77
2019-05-11T03:46:53.951Z,90.76
2019-05-11T03:51:56.002Z,91.43
2019-05-11T03:56:58.367Z,91.19
2019-05-11T04:02:00.486Z,91.07
2019-05-11T04:07:02.657Z,91.54
2019-05-11T04:12:04.713Z,91.84
2019-05-11T04:17:06.823Z,91.42
2019-05-11T04:22:09.278Z,91.71
2019-05-11T04:27:11.403Z,91.01
2019-05-11T04:32:13.511Z,92.80
2019-05-11T04:37:15.649Z,92.54
2019-05-11T04:42:17.770Z,92.45
2019-05-11T04:47:19.966Z,91.46
2019-05-11T04:52:22.040Z,91.21
2019-05-11T04:57:24.349Z,91.48
2019-05-11T05:02:27.359Z,91.74
2019-05-11T05:07:30.195Z,91.60
2019-05-11T05:12:34.332Z,92.45
2019-05-11T05:17:36.507Z,92.15
2019-05-11T05:22:38.672Z,91.71
2019-05-11T05:27:40.831Z,91.00
2019-05-11T05:32:42.943Z,91.80
2019-05-11T05:37:45.106Z,93.28
2019-05-11T05:42:47.208Z,94.44
2019-05-11T05:47:49.658Z,93.81
2019-05-11T05:52:51.710Z,93.08
2019-05-11T05:57:53.816Z,93.18
2019-05-11T06:02:55.932Z,92.38
2019-05-11T06:07:58.106Z,92.35
2019-05-11T06:13:00.291Z,93.02
2019-05-11T06:18:02.368Z,92.62
2019-05-11T06:23:04.515Z,92.08
2019-05-11T06:28:06.631Z,92.33
2019-05-11T06:33:08.695Z,92.07
2019-05-11T06:38:11.347Z,91.85
2019-05-11T06:43:13.419Z,91.63
2019-05-11T06:48:15.564Z,91.86
2019-05-11T06:53:17.800Z,91.65
2019-05-11T06:58:19.904Z,90.90
2019-05-11T07:03:22.062Z,91.52
2019-05-11T07:08:24.250Z,91.05
2019-05-11T07:13:26.622Z,90.97
2019-05-11T07:18:28.766Z,91.62
2019-05-11T07:23:31.231Z,91.83
2019-05-11T07:28:33.440Z,91.81
2019-05-11T07:33:37.865Z,91.23
2019-05-11T07:38:39.521Z,91.20
2019-05-11T07:43:41.602Z,90.89
2019-05-11T07:48:47.986Z,91.49
2019-05-11T07:53:50.237Z,91.24
2019-05-11T07:58:52.328Z,91.71
2019-05-11T08:03:54.485Z,90.97
2019-05-11T08:08:58.788Z,90.84
2019-05-11T08:14:00.755Z,91.29
2019-05-11T08:19:06.829Z,90.06
2019-05-11T08:24:09.144Z,90.79
2019-05-11T08:29:11.132Z,90.36
2019-05-11T08:34:13.227Z,90.94
2019-05-11T08:39:15.376Z,91.22
2019-05-11T08:44:18.175Z,90.04
2019-05-11T08:49:20.585Z,90.77
2019-05-11T08:54:22.982Z,90.80
2019-05-11T08:59:25.034Z,90.48
2019-05-11T09:04:28.874Z,91.32
2019-05-11T09:09:31.612Z,90.44
2019-05-11T09:14:33.941Z,90.47
2019-05-11T09:19:36.024Z,90.29
2019-05-11T09:24:38.758Z,90.81
2019-05-11T09:29:41.021Z,90.32
2019-05-11T09:34:43.128Z,90.70
2019-05-11T09:39:47.725Z,89.94
2019-05-11T09:44:49.541Z,89.69
2019-05-11T09:49:51.972Z,90.01
2019-05-11T09:54:54.095Z,89.76
2019-05-11T09:59:58.238Z,89.92
2019-05-11T10:05:00.320Z,89.94
2019-05-11T10:10:02.630Z,89.94
2019-05-11T10:15:08.128Z,89.19
2019-05-11T10:20:10.106Z,89.10
2019-05-11T10:25:12.106Z,90.14
2019-05-11T10:30:14.460Z,89.81
2019-05-11T10:35:18.429Z,88.86
2019-05-11T10:40:22.112Z,88.71
2019-05-11T10:45:25.721Z,88.27
2019-05-11T10:50:28.759Z,87.34
2019-05-11T10:55:31.161Z,87.89
2019-05-11T11:00:34.384Z,88.32
2019-05-11T11:05:38.422Z,87.29
2019-05-11T11:10:40.510Z,86.80
2019-05-11T11:15:42.584Z,87.96
2019-05-11T11:20:44.611Z,88.38
2019-05-11T11:25:48.186Z,87.29
2019-05-11T11:30:50.741Z,87.89
2019-05-11T11:35:52.817Z,86.68
2019-05-11T11:40:54.903Z,86.84
2019-05-11T11:45:58.032Z,86.41
2019-05-11T11:51:00.453Z,86.64
2019-05-11T11:56:03.345Z,84.57
2019-05-11T12:01:07.914Z,83.73
2019-05-11T12:06:09.531Z,83.49
2019-05-11T12:11:11.831Z,84.26
2019-05-11T12:16:13.937Z,82.74
2019-05-11T12:21:18.286Z,82.86
2019-05-11T12:26:20.084Z,83.66
2019-05-11T12:31:22.511Z,81.91
2019-05-11T12:36:24.593Z,83.37
2019-05-11T12:41:28.049Z,83.61
2019-05-11T12:46:30.224Z,83.98
2019-05-11T12:51:32.324Z,85.47
2019-05-11T12:56:35.073Z,84.76
2019-05-11T13:01:38.184Z,84.70
2019-05-11T13:06:40.507Z,83.86
2019-05-11T13:11:42.643Z,83.20
2019-05-11T13:16:48.305Z,82.15
2019-05-11T13:21:51.873Z,81.84
2019-05-11T13:26:54.098Z,81.54
2019-05-11T13:31:56.147Z,80.01
2019-05-11T13:36:58.214Z,80.94
2019-05-11T13:42:00.273Z,78.96
2019-05-11T13:47:02.374Z,79.65
2019-05-11T13:52:04.550Z,78.78
2019-05-11T13:57:08.083Z,79.41
2019-05-11T14:02:11.034Z,78.51
2019-05-11T14:07:13.277Z,78.23
2019-05-11T14:12:15.341Z,77.03
2019-05-11T14:17:18.667Z,78.79
2019-05-11T14:22:21.050Z,78.19
2019-05-11T14:27:23.161Z,78.00
2019-05-11T14:32:25.247Z,78.15
2019-05-11T14:37:28.564Z,78.37
2019-05-11T14:42:30.756Z,75.83
2019-05-11T14:47:33.145Z,75.51
2019-05-11T14:52:35.231Z,76.59
2019-05-11T14:57:39.558Z,76.65
2019-05-11T15:02:49.172Z,77.32
2019-05-11T15:07:53.553Z,77.96
2019-05-11T15:12:55.667Z,78.16
2019-05-11T15:17:58.311Z,77.80
2019-05-11T15:23:00.406Z,78.55
2019-05-11T15:28:02.495Z,79.63
2019-05-11T15:33:04.530Z,79.87
2019-05-11T15:38:08.715Z,78.65
2019-05-11T15:43:11.059Z,79.93
2019-05-11T15:48:13.681Z,79.50
2019-05-11T15:53:17.824Z,80.74
2019-05-11T15:58:22.215Z,80.26
2019-05-11T16:03:24.405Z,79.66
2019-05-11T16:08:28.376Z,81.88
2019-05-11T16:13:30.589Z,80.00
2019-05-11T16:18:32.694Z,79.55
2019-05-11T16:23:34.782Z,81.21
2019-05-11T16:28:38.394Z,80.58
2019-05-11T16:33:40.682Z,80.36
2019-05-11T16:38:42.771Z,80.07
2019-05-11T16:43:44.868Z,80.94
2019-05-11T16:48:47.052Z,80.33
2019-05-11T16:53:49.198Z,81.59
2019-05-11T16:58:54.494Z,81.48
2019-05-11T17:03:57.708Z,82.53
2019-05-11T17:08:59.318Z,82.07
2019-05-11T17:14:01.758Z,83.27
2019-05-11T17:19:04.001Z,83.62
2019-05-11T17:24:10.875Z,84.13
2019-05-11T17:29:12.991Z,83.84
2019-05-11T17:34:17.832Z,84.80
2019-05-11T17:39:22.471Z,84.29
2019-05-11T17:44:25.525Z,85.45
2019-05-11T17:49:27.779Z,85.48
2019-05-11T17:54:29.931Z,83.18
2019-05-11T17:59:32.036Z,83.18
2019-05-11T18:04:34.328Z,82.36
2019-05-11T18:09:38.064Z,82.75
2019-05-11T18:14:40.212Z,82.00
2019-05-11T18:19:42.529Z,81.89
2019-05-11T18:24:44.592Z,81.12
2019-05-11T18:29:48.567Z,81.59
2019-05-11T18:34:50.740Z,81.57
2019-05-11T18:39:52.938Z,82.59
2019-05-11T18:44:58.010Z,81.52
2019-05-11T18:49:59.480Z,82.04
2019-05-11T18:55:01.641Z,82.91
2019-05-11T19:00:08.299Z,83.33
2019-05-11T19:05:12.526Z,82.91
2019-05-11T19:10:14.794Z,82.30
2019-05-11T19:15:18.745Z,82.54
2019-05-11T19:20:21.025Z,83.18
2019-05-11T19:25:24.350Z,83.75
2019-05-11T19:30:27.735Z,83.02
2019-05-11T19:35:31.330Z,84.38
2019-05-11T19:40:33.424Z,83.79
2019-05-11T19:45:38.180Z,82.75
2019-05-11T19:50:41.189Z,83.85
2019-05-11T19:55:43.619Z,82.63
2019-05-11T20:00:45.680Z,82.68
2019-05-11T20:05:48.541Z,82.37
2019-05-11T20:10:50.773Z,82.10
2019-05-11T20:15:52.813Z,82.76
2019-05-11T20:20:54.841Z,82.04
2019-05-11T20:26:01.537Z,82.44
2019-05-11T20:31:03.677Z,84.03
2019-05-11T20:36:05.797Z,83.12
2019-05-11T20:41:08.445Z,82.40
2019-05-11T20:46:10.594Z,83.31
2019-05-11T20:51:12.688Z,82.50
2019-05-11T20:56:15.052Z,81.76
2019-05-11T21:01:21.619Z,83.59
2019-05-11T21:06:23.860Z,83.38
2019-05-11T21:11:25.973Z,84.01
2019-05-11T21:16:28.038Z,83.34
2019-05-11T21:21:30.514Z,83.26
2019-05-11T21:26:32.712Z,84.60
2019-05-11T21:31:37.712Z,83.32
2019-05-11T21:36:39.248Z,82.43
2019-05-11T21:41:41.685Z,84.13
2019-05-11T21:46:44.106Z,83.17
2019-05-11T21:51:48.147Z,83.17
2019-05-11T21:56:50.519Z,83.37
2019-05-11T22:01:52.656Z,83.43
2019-05-11T22:06:54.829Z,83.26
2019-05-11T22:11:56.985Z,82.51
2019-05-11T22:17:02.377Z,81.17
2019-05-11T22:22:17.326Z,81.28
2019-05-11T22:27:08.303Z,81.06
2019-05-11T22:32:10.401Z,80.77
2019-05-11T22:37:12.500Z,80.34
2019-05-11T22:42:14.979Z,81.24
2019-05-11T22:47:17.820Z,80.46
2019-05-11T22:52:32.975Z,80.31
2019-05-11T22:57:24.167Z,80.31
2019-05-11T23:02:28.553Z,80.67
2019-05-11T23:07:30.640Z,80.67
2019-05-11T23:12:32.692Z,81.82
2019-05-11T23:17:35.013Z,81.43
2019-05-11T23:22:56.056Z,81.63
2019-05-11T23:27:51.234Z,81.79
2019-05-11T23:32:53.369Z,81.49
2019-05-11T23:37:57.606Z,80.93
2019-05-11T23:42:59.477Z,81.65
2019-05-11T23:48:01.584Z,81.21
2019-05-11T23:53:06.484Z,81.01
2019-05-11T23:58:08.366Z,79.52
